Vernon River, Canada
Current Conditions -  °F | °C
As of 2:00 PM on Monday 22 Dec 2014 (Local Time) from CYYG Reporting Station
Light Snow Light Snow  
Wind Chill: 21°   Ceiling: 2000
Heat Index: 27°   Visibility: 15mi
Dew Point: 19°   Wind: 5mph
Humidity: 74%   Direction: 260°W
Pressure: 30.46"   Gusts: NA
Location:  46.2°N, 62.83°W
Report Text: CYYG 221800Z 26004KT 230V300 15SM -SG OVC020 M03/M07 A3046 RMK SC8 SLP319
Loading
Personal Weather Stations






























Interactive Weather Map New forecast layout! Learn more

10-Day Weather Forecast

Advertisements
Track Severe Weather on mobile